sensor_id;sensor_type;location;lat;lon;timestamp;pressure;altitude;pressure_sealevel;temperature;humidity
77077;BME280;66003;52.286;104.306;2023-02-19T00:01:33;97865.78;;;-6.05;50.68
77077;BME280;66003;52.286;104.306;2023-02-19T00:04:02;97857.69;;;-6.12;48.96
77077;BME280;66003;52.286;104.306;2023-02-19T00:06:30;97836.88;;;-6.31;48.96
77077;BME280;66003;52.286;104.306;2023-02-19T00:08:57;97847.00;;;-6.28;49.55
77077;BME280;66003;52.286;104.306;2023-02-19T00:11:26;97846.31;;;-6.40;50.30
77077;BME280;66003;52.286;104.306;2023-02-19T00:13:53;97850.56;;;-6.39;49.40
77077;BME280;66003;52.286;104.306;2023-02-19T00:16:29;97848.09;;;-6.50;50.05
77077;BME280;66003;52.286;104.306;2023-02-19T00:18:56;97906.28;;;-6.22;50.57
77077;BME280;66003;52.286;104.306;2023-02-19T00:21:23;97898.59;;;-6.33;49.05
77077;BME280;66003;52.286;104.306;2023-02-19T00:23:54;97907.47;;;-6.36;49.90
77077;BME280;66003;52.286;104.306;2023-02-19T00:26:21;97919.00;;;-6.38;49.97
77077;BME280;66003;52.286;104.306;2023-02-19T00:28:48;97913.81;;;-6.38;51.22
77077;BME280;66003;52.286;104.306;2023-02-19T00:33:54;97886.41;;;-6.52;50.70
77077;BME280;66003;52.286;104.306;2023-02-19T00:36:21;97891.38;;;-6.20;50.70
77077;BME280;66003;52.286;104.306;2023-02-19T00:38:48;97933.50;;;-5.78;49.36
77077;BME280;66003;52.286;104.306;2023-02-19T00:41:16;97883.97;;;-6.05;49.08
77077;BME280;66003;52.286;104.306;2023-02-19T00:43:46;97941.44;;;-5.51;49.52
77077;BME280;66003;52.286;104.306;2023-02-19T00:46:13;97930.13;;;-4.48;49.71
77077;BME280;66003;52.286;104.306;2023-02-19T00:48:39;97933.91;;;-3.01;46.36
77077;BME280;66003;52.286;104.306;2023-02-19T00:51:06;97932.06;;;-1.74;41.89
77077;BME280;66003;52.286;104.306;2023-02-19T00:53:32;97909.78;;;-0.50;39.83
77077;BME280;66003;52.286;104.306;2023-02-19T00:55:58;97933.75;;;0.78;36.71
77077;BME280;66003;52.286;104.306;2023-02-19T00:58:24;97913.13;;;1.63;34.15
77077;BME280;66003;52.286;104.306;2023-02-19T01:00:53;97923.44;;;2.51;32.68
77077;BME280;66003;52.286;104.306;2023-02-19T01:03:19;97940.44;;;3.19;30.22
77077;BME280;66003;52.286;104.306;2023-02-19T01:05:48;97940.84;;;3.50;28.49
77077;BME280;66003;52.286;104.306;2023-02-19T01:08:15;97910.06;;;3.71;26.90
77077;BME280;66003;52.286;104.306;2023-02-19T01:10:41;97945.38;;;3.97;25.72
77077;BME280;66003;52.286;104.306;2023-02-19T01:13:07;97954.69;;;3.93;30.60
77077;BME280;66003;52.286;104.306;2023-02-19T01:15:34;97955.72;;;2.74;25.76
77077;BME280;66003;52.286;104.306;2023-02-19T01:18:00;97927.97;;;2.36;25.36
77077;BME280;66003;52.286;104.306;2023-02-19T01:20:27;97967.81;;;3.11;24.67
77077;BME280;66003;52.286;104.306;2023-02-19T01:22:53;97920.69;;;3.77;23.96
77077;BME280;66003;52.286;104.306;2023-02-19T01:25:19;97936.59;;;4.71;23.36
77077;BME280;66003;52.286;104.306;2023-02-19T01:27:45;97958.75;;;5.56;22.68
77077;BME280;66003;52.286;104.306;2023-02-19T01:30:12;97960.50;;;6.08;22.09
77077;BME280;66003;52.286;104.306;2023-02-19T01:32:38;97965.88;;;6.39;22.28
77077;BME280;66003;52.286;104.306;2023-02-19T01:35:04;97932.63;;;6.30;22.48
77077;BME280;66003;52.286;104.306;2023-02-19T01:37:30;97939.59;;;6.63;22.08
77077;BME280;66003;52.286;104.306;2023-02-19T01:39:57;97962.63;;;7.00;21.37
77077;BME280;66003;52.286;104.306;2023-02-19T01:42:23;97968.38;;;7.22;20.92
77077;BME280;66003;52.286;104.306;2023-02-19T01:45:28;97970.50;;;7.38;23.38
77077;BME280;66003;52.286;104.306;2023-02-19T01:48:08;97972.34;;;7.38;21.59
77077;BME280;66003;52.286;104.306;2023-02-19T01:50:49;97935.28;;;7.43;21.67
77077;BME280;66003;52.286;104.306;2023-02-19T01:53:18;97979.09;;;7.40;21.46
77077;BME280;66003;52.286;104.306;2023-02-19T01:55:49;97976.41;;;7.15;21.03
77077;BME280;66003;52.286;104.306;2023-02-19T01:58:17;97945.75;;;7.13;20.52
77077;BME280;66003;52.286;104.306;2023-02-19T02:00:44;97979.81;;;7.47;21.35
77077;BME280;66003;52.286;104.306;2023-02-19T02:03:11;97954.69;;;6.69;20.40
77077;BME280;66003;52.286;104.306;2023-02-19T02:05:53;97991.59;;;7.33;21.17
77077;BME280;66003;52.286;104.306;2023-02-19T02:08:20;97990.56;;;7.09;21.31
77077;BME280;66003;52.286;104.306;2023-02-19T02:11:05;97987.97;;;6.27;20.47
77077;BME280;66003;52.286;104.306;2023-02-19T02:13:32;97992.75;;;6.94;20.99
77077;BME280;66003;52.286;104.306;2023-02-19T02:22:48;98015.00;;;7.92;22.15
77077;BME280;66003;52.286;104.306;2023-02-19T02:30:53;97981.13;;;6.50;19.95
77077;BME280;66003;52.286;104.306;2023-02-19T02:34:05;98036.03;;;8.19;19.96
77077;BME280;66003;52.286;104.306;2023-02-19T02:36:35;98016.84;;;8.65;18.53
77077;BME280;66003;52.286;104.306;2023-02-19T02:39:05;98026.25;;;8.31;18.65
77077;BME280;66003;52.286;104.306;2023-02-19T02:41:32;98014.13;;;8.72;18.42
77077;BME280;66003;52.286;104.306;2023-02-19T02:43:58;98029.94;;;9.38;18.34
77077;BME280;66003;52.286;104.306;2023-02-19T02:46:33;98003.13;;;9.21;18.25
77077;BME280;66003;52.286;104.306;2023-02-19T02:49:07;98026.00;;;9.29;18.03
77077;BME280;66003;52.286;104.306;2023-02-19T02:51:41;98015.09;;;9.30;17.66
77077;BME280;66003;52.286;104.306;2023-02-19T02:54:19;97992.31;;;9.04;18.31
77077;BME280;66003;52.286;104.306;2023-02-19T02:57:06;98026.09;;;9.22;17.88
77077;BME280;66003;52.286;104.306;2023-02-19T02:59:36;98030.63;;;9.33;17.81
77077;BME280;66003;52.286;104.306;2023-02-19T03:02:25;98036.38;;;10.19;18.54
77077;BME280;66003;52.286;104.306;2023-02-19T03:08:02;98046.28;;;7.79;19.28
77077;BME280;66003;52.286;104.306;2023-02-19T03:10:52;98045.06;;;5.58;21.28
77077;BME280;66003;52.286;104.306;2023-02-19T03:13:32;98064.38;;;3.70;23.19
77077;BME280;66003;52.286;104.306;2023-02-19T03:16:23;98055.28;;;3.79;23.77
77077;BME280;66003;52.286;104.306;2023-02-19T03:19:13;98016.91;;;4.91;22.67
77077;BME280;66003;52.286;104.306;2023-02-19T03:21:52;98050.69;;;6.21;21.73
77077;BME280;66003;52.286;104.306;2023-02-19T03:24:28;98017.94;;;6.40;21.52
77077;BME280;66003;52.286;104.306;2023-02-19T03:27:15;98048.91;;;5.95;22.04
77077;BME280;66003;52.286;104.306;2023-02-19T03:29:43;97992.53;;;3.94;24.23
77077;BME280;66003;52.286;104.306;2023-02-19T03:32:38;98002.03;;;2.77;25.91
77077;BME280;66003;52.286;104.306;2023-02-19T03:35:06;98050.03;;;2.15;27.57
77077;BME280;66003;52.286;104.306;2023-02-19T03:37:44;98038.72;;;1.33;28.97
77077;BME280;66003;52.286;104.306;2023-02-19T03:40:11;98025.97;;;0.84;29.96
77077;BME280;66003;52.286;104.306;2023-02-19T03:45:58;98069.41;;;0.80;30.55
77077;BME280;66003;52.286;104.306;2023-02-19T03:51:17;98058.50;;;0.60;31.64
77077;BME280;66003;52.286;104.306;2023-02-19T03:56:42;98059.97;;;0.63;32.30
77077;BME280;66003;52.286;104.306;2023-02-19T03:59:23;98053.47;;;0.51;32.47
77077;BME280;66003;52.286;104.306;2023-02-19T04:02:01;98044.00;;;0.42;32.63
77077;BME280;66003;52.286;104.306;2023-02-19T04:06:58;98045.88;;;0.25;32.93
77077;BME280;66003;52.286;104.306;2023-02-19T04:09:29;97985.59;;;-0.08;32.63
77077;BME280;66003;52.286;104.306;2023-02-19T04:11:58;98050.03;;;0.50;33.18
77077;BME280;66003;52.286;104.306;2023-02-19T04:17:25;98039.47;;;0.58;32.49
77077;BME280;66003;52.286;104.306;2023-02-19T04:19:53;98047.06;;;0.53;33.19
77077;BME280;66003;52.286;104.306;2023-02-19T04:22:24;98049.78;;;0.60;32.62
77077;BME280;66003;52.286;104.306;2023-02-19T04:24:52;98047.00;;;0.61;32.81
77077;BME280;66003;52.286;104.306;2023-02-19T04:27:20;98044.13;;;0.71;33.28
77077;BME280;66003;52.286;104.306;2023-02-19T04:29:47;98002.81;;;0.57;32.60
77077;BME280;66003;52.286;104.306;2023-02-19T04:32:13;98006.69;;;0.46;32.53
77077;BME280;66003;52.286;104.306;2023-02-19T04:34:39;98030.78;;;0.50;32.99
77077;BME280;66003;52.286;104.306;2023-02-19T04:37:06;98044.19;;;0.63;32.71
77077;BME280;66003;52.286;104.306;2023-02-19T04:39:32;98037.78;;;0.65;32.58
77077;BME280;66003;52.286;104.306;2023-02-19T04:41:58;98024.72;;;0.72;32.45
77077;BME280;66003;52.286;104.306;2023-02-19T04:44:24;98016.84;;;0.72;32.08
77077;BME280;66003;52.286;104.306;2023-02-19T04:46:50;98006.72;;;0.61;32.33
77077;BME280;66003;52.286;104.306;2023-02-19T04:49:17;98001.94;;;0.64;32.37
77077;BME280;66003;52.286;104.306;2023-02-19T04:51:43;98032.75;;;0.79;32.57
77077;BME280;66003;52.286;104.306;2023-02-19T04:54:09;98013.09;;;0.66;32.17
77077;BME280;66003;52.286;104.306;2023-02-19T04:56:35;98040.47;;;0.80;32.32
77077;BME280;66003;52.286;104.306;2023-02-19T04:59:01;98055.84;;;0.91;31.89
77077;BME280;66003;52.286;104.306;2023-02-19T05:01:28;98045.00;;;0.94;31.85
77077;BME280;66003;52.286;104.306;2023-02-19T05:03:54;98046.00;;;0.85;32.54
77077;BME280;66003;52.286;104.306;2023-02-19T05:06:20;98042.34;;;0.94;32.07
77077;BME280;66003;52.286;104.306;2023-02-19T05:08:46;98012.81;;;0.84;31.65
77077;BME280;66003;52.286;104.306;2023-02-19T05:11:12;98042.63;;;0.99;31.52
77077;BME280;66003;52.286;104.306;2023-02-19T05:13:39;98015.16;;;0.79;31.70
77077;BME280;66003;52.286;104.306;2023-02-19T05:16:09;98023.56;;;0.97;31.43
77077;BME280;66003;52.286;104.306;2023-02-19T05:18:39;98044.59;;;1.20;31.05
77077;BME280;66003;52.286;104.306;2023-02-19T05:21:05;98024.72;;;0.72;31.39
77077;BME280;66003;52.286;104.306;2023-02-19T05:23:32;97999.38;;;0.56;31.25
77077;BME280;66003;52.286;104.306;2023-02-19T05:25:58;98043.09;;;0.80;31.44
77077;BME280;66003;52.286;104.306;2023-02-19T05:28:24;98006.63;;;0.54;32.10
77077;BME280;66003;52.286;104.306;2023-02-19T05:30:55;97988.31;;;0.61;31.79
77077;BME280;66003;52.286;104.306;2023-02-19T05:33:23;98027.44;;;0.87;31.67
77077;BME280;66003;52.286;104.306;2023-02-19T05:36:05;97988.38;;;0.76;31.67
77077;BME280;66003;52.286;104.306;2023-02-19T05:38:32;97981.19;;;0.69;31.53
77077;BME280;66003;52.286;104.306;2023-02-19T05:43:33;98008.13;;;0.71;32.19
77077;BME280;66003;52.286;104.306;2023-02-19T05:45:59;97963.13;;;0.66;31.80
77077;BME280;66003;52.286;104.306;2023-02-19T05:48:25;98003.22;;;0.91;31.85
77077;BME280;66003;52.286;104.306;2023-02-19T05:50:52;98011.75;;;0.93;31.50
77077;BME280;66003;52.286;104.306;2023-02-19T05:53:18;97989.66;;;0.80;31.82
77077;BME280;66003;52.286;104.306;2023-02-19T05:55:44;98003.41;;;0.67;32.01
77077;BME280;66003;52.286;104.306;2023-02-19T05:58:10;98009.34;;;0.84;31.90
77077;BME280;66003;52.286;104.306;2023-02-19T06:00:36;98014.19;;;0.72;32.50
77077;BME280;66003;52.286;104.306;2023-02-19T06:03:02;97998.66;;;0.62;31.84
77077;BME280;66003;52.286;104.306;2023-02-19T06:05:28;98001.13;;;0.64;32.08
77077;BME280;66003;52.286;104.306;2023-02-19T06:07:54;97961.97;;;0.46;32.07
77077;BME280;66003;52.286;104.306;2023-02-19T06:10:21;97944.41;;;0.39;32.00
77077;BME280;66003;52.286;104.306;2023-02-19T06:12:49;98005.63;;;0.78;32.15
77077;BME280;66003;52.286;104.306;2023-02-19T06:15:17;98002.03;;;0.71;32.72
77077;BME280;66003;52.286;104.306;2023-02-19T06:17:43;97974.16;;;0.39;33.01
77077;BME280;66003;52.286;104.306;2023-02-19T06:20:09;97995.28;;;0.54;32.43
77077;BME280;66003;52.286;104.306;2023-02-19T06:22:36;97952.94;;;0.41;32.42
77077;BME280;66003;52.286;104.306;2023-02-19T06:25:02;97949.56;;;0.55;31.88
77077;BME280;66003;52.286;104.306;2023-02-19T06:27:29;98003.22;;;0.91;31.69
77077;BME280;66003;52.286;104.306;2023-02-19T06:29:55;97995.03;;;0.86;31.73
77077;BME280;66003;52.286;104.306;2023-02-19T06:32:21;97992.69;;;0.91;31.93
77077;BME280;66003;52.286;104.306;2023-02-19T06:34:48;97981.78;;;0.80;32.02
77077;BME280;66003;52.286;104.306;2023-02-19T06:37:14;97947.75;;;0.55;32.35
77077;BME280;66003;52.286;104.306;2023-02-19T06:39:40;97994.78;;;0.96;31.81
77077;BME280;66003;52.286;104.306;2023-02-19T06:42:06;97997.06;;;0.99;31.65
77077;BME280;66003;52.286;104.306;2023-02-19T06:44:32;97978.63;;;0.99;31.92
77077;BME280;66003;52.286;104.306;2023-02-19T06:46:58;97986.66;;;1.05;31.92
77077;BME280;66003;52.286;104.306;2023-02-19T06:49:24;97922.22;;;0.41;32.04
77077;BME280;66003;52.286;104.306;2023-02-19T06:51:51;97953.91;;;0.70;32.18
77077;BME280;66003;52.286;104.306;2023-02-19T06:54:17;97956.13;;;0.59;32.48
77077;BME280;66003;52.286;104.306;2023-02-19T06:56:43;97957.88;;;0.66;32.43
77077;BME280;66003;52.286;104.306;2023-02-19T06:59:12;97981.78;;;0.80;31.98
77077;BME280;66003;52.286;104.306;2023-02-19T07:01:39;97966.91;;;0.64;32.39
77077;BME280;66003;52.286;104.306;2023-02-19T07:04:09;97987.69;;;0.59;32.42
77077;BME280;66003;52.286;104.306;2023-02-19T07:06:38;97958.72;;;0.36;32.78
77077;BME280;66003;52.286;104.306;2023-02-19T07:09:07;97969.38;;;0.43;32.95
77077;BME280;66003;52.286;104.306;2023-02-19T07:11:35;97937.88;;;0.12;33.00
77077;BME280;66003;52.286;104.306;2023-02-19T07:14:04;97947.19;;;0.14;32.97
77077;BME280;66003;52.286;104.306;2023-02-19T07:16:32;97965.19;;;0.25;33.11
77077;BME280;66003;52.286;104.306;2023-02-19T07:18:59;97971.41;;;0.32;33.05
77077;BME280;66003;52.286;104.306;2023-02-19T07:21:26;97959.84;;;0.19;33.07
77077;BME280;66003;52.286;104.306;2023-02-19T07:23:53;97981.41;;;0.37;33.31
77077;BME280;66003;52.286;104.306;2023-02-19T07:26:19;97991.16;;;0.28;33.04
77077;BME280;66003;52.286;104.306;2023-02-19T07:28:48;97945.13;;;0.02;33.37
77077;BME280;66003;52.286;104.306;2023-02-19T07:31:16;97976.91;;;0.23;33.46
77077;BME280;66003;52.286;104.306;2023-02-19T07:33:44;97967.94;;;0.09;33.75
77077;BME280;66003;52.286;104.306;2023-02-19T07:36:10;97981.56;;;0.35;34.81
77077;BME280;66003;52.286;104.306;2023-02-19T07:38:37;97969.19;;;0.21;33.64
77077;BME280;66003;52.286;104.306;2023-02-19T07:41:04;97957.44;;;0.01;34.02
77077;BME280;66003;52.286;104.306;2023-02-19T07:43:31;97976.84;;;0.31;33.85
77077;BME280;66003;52.286;104.306;2023-02-19T07:45:58;97947.09;;;0.08;34.03
77077;BME280;66003;52.286;104.306;2023-02-19T07:48:27;97984.78;;;0.23;33.80
77077;BME280;66003;52.286;104.306;2023-02-19T07:50:57;97972.50;;;0.15;34.07
77077;BME280;66003;52.286;104.306;2023-02-19T07:53:25;97976.66;;;0.10;33.81
77077;BME280;66003;52.286;104.306;2023-02-19T07:55:52;97958.75;;;0.05;33.81
77077;BME280;66003;52.286;104.306;2023-02-19T07:58:18;97969.22;;;0.13;34.00
77077;BME280;66003;52.286;104.306;2023-02-19T08:00:44;97953.66;;;0.04;33.98
77077;BME280;66003;52.286;104.306;2023-02-19T08:03:10;97923.22;;;-0.14;33.92
77077;BME280;66003;52.286;104.306;2023-02-19T08:05:38;97959.19;;;0.17;34.39
77077;BME280;66003;52.286;104.306;2023-02-19T08:08:09;97972.63;;;0.22;33.92
77077;BME280;66003;52.286;104.306;2023-02-19T08:10:36;97962.94;;;0.22;34.62
77077;BME280;66003;52.286;104.306;2023-02-19T08:13:20;97950.63;;;0.23;34.04
77077;BME280;66003;52.286;104.306;2023-02-19T08:16:09;97945.38;;;0.23;33.77
77077;BME280;66003;52.286;104.306;2023-02-19T08:18:36;97937.81;;;0.20;34.12
77077;BME280;66003;52.286;104.306;2023-02-19T08:21:02;97956.47;;;0.33;33.98
77077;BME280;66003;52.286;104.306;2023-02-19T08:23:28;97954.00;;;0.31;33.54
77077;BME280;66003;52.286;104.306;2023-02-19T08:25:59;97912.34;;;-0.03;33.44
77077;BME280;66003;52.286;104.306;2023-02-19T08:28:25;97916.34;;;-0.23;32.97
77077;BME280;66003;52.286;104.306;2023-02-19T08:30:52;97963.03;;;0.06;33.36
77077;BME280;66003;52.286;104.306;2023-02-19T08:33:20;97949.63;;;-0.07;33.15
77077;BME280;66003;52.286;104.306;2023-02-19T08:35:46;97947.66;;;-0.05;32.80
77077;BME280;66003;52.286;104.306;2023-02-19T08:38:14;97941.09;;;-0.09;32.98
77077;BME280;66003;52.286;104.306;2023-02-19T08:40:41;97907.00;;;-0.17;32.83
77077;BME280;66003;52.286;104.306;2023-02-19T08:43:10;97938.50;;;0.14;32.85
77077;BME280;66003;52.286;104.306;2023-02-19T08:45:38;97926.88;;;0.08;32.85
77077;BME280;66003;52.286;104.306;2023-02-19T08:48:05;97934.13;;;0.06;32.88
77077;BME280;66003;52.286;104.306;2023-02-19T08:50:31;97934.81;;;0.00;32.88
77077;BME280;66003;52.286;104.306;2023-02-19T08:53:00;97915.63;;;-0.09;32.77
77077;BME280;66003;52.286;104.306;2023-02-19T08:55:27;97900.41;;;-0.13;33.05
77077;BME280;66003;52.286;104.306;2023-02-19T08:57:53;97915.19;;;-0.12;32.85
77077;BME280;66003;52.286;104.306;2023-02-19T09:00:19;97897.38;;;-0.33;32.66
77077;BME280;66003;52.286;104.306;2023-02-19T09:02:47;97942.56;;;-0.07;32.79
77077;BME280;66003;52.286;104.306;2023-02-19T09:05:14;97935.38;;;-0.13;33.04
77077;BME280;66003;52.286;104.306;2023-02-19T09:07:41;97901.19;;;-0.35;32.84
77077;BME280;66003;52.286;104.306;2023-02-19T09:10:09;97886.31;;;-0.51;32.58
77077;BME280;66003;52.286;104.306;2023-02-19T09:12:36;97944.16;;;-0.28;33.44
77077;BME280;66003;52.286;104.306;2023-02-19T09:15:04;97947.47;;;-0.43;33.11
77077;BME280;66003;52.286;104.306;2023-02-19T09:17:30;97935.56;;;-0.61;33.56
77077;BME280;66003;52.286;104.306;2023-02-19T09:19:56;97908.72;;;-0.71;33.32
77077;BME280;66003;52.286;104.306;2023-02-19T09:22:22;97942.72;;;-0.47;33.76
77077;BME280;66003;52.286;104.306;2023-02-19T09:24:49;97914.47;;;-0.84;33.90
77077;BME280;66003;52.286;104.306;2023-02-19T09:27:16;97950.50;;;-0.70;34.13
77077;BME280;66003;52.286;104.306;2023-02-19T09:29:43;97950.03;;;-0.82;34.17
77077;BME280;66003;52.286;104.306;2023-02-19T09:32:10;97924.22;;;-1.25;34.60
77077;BME280;66003;52.286;104.306;2023-02-19T09:34:36;97911.47;;;-1.44;35.13
77077;BME280;66003;52.286;104.306;2023-02-19T09:37:05;97950.28;;;-1.32;35.19
77077;BME280;66003;52.286;104.306;2023-02-19T09:39:31;97936.50;;;-1.50;35.47
77077;BME280;66003;52.286;104.306;2023-02-19T09:42:01;97947.34;;;-1.45;34.99
77077;BME280;66003;52.286;104.306;2023-02-19T09:44:39;97914.22;;;-1.78;35.20
77077;BME280;66003;52.286;104.306;2023-02-19T09:47:15;97955.69;;;-1.58;35.15
77077;BME280;66003;52.286;104.306;2023-02-19T09:49:44;97937.81;;;-1.70;35.06
77077;BME280;66003;52.286;104.306;2023-02-19T09:52:39;97945.47;;;-1.77;35.24
77077;BME280;66003;52.286;104.306;2023-02-19T09:57:49;97908.44;;;-2.06;35.53
77077;BME280;66003;52.286;104.306;2023-02-19T10:00:24;97952.06;;;-1.81;35.92
77077;BME280;66003;52.286;104.306;2023-02-19T10:03:13;97950.41;;;-1.82;35.78
77077;BME280;66003;52.286;104.306;2023-02-19T10:05:46;97945.78;;;-1.88;35.79
77077;BME280;66003;52.286;104.306;2023-02-19T10:08:18;97900.44;;;-2.13;35.64
77077;BME280;66003;52.286;104.306;2023-02-19T10:10:46;97940.09;;;-1.92;35.22
77077;BME280;66003;52.286;104.306;2023-02-19T10:13:28;97918.41;;;-2.18;35.97
77077;BME280;66003;52.286;104.306;2023-02-19T10:15:57;97936.78;;;-2.02;35.46
77077;BME280;66003;52.286;104.306;2023-02-19T10:18:30;97942.13;;;-2.11;36.07
77077;BME280;66003;52.286;104.306;2023-02-19T10:21:21;97943.59;;;-2.25;36.42
77077;BME280;66003;52.286;104.306;2023-02-19T10:23:53;97897.00;;;-2.56;35.94
77077;BME280;66003;52.286;104.306;2023-02-19T10:26:22;97941.91;;;-2.34;36.94
77077;BME280;66003;52.286;104.306;2023-02-19T10:28:51;97945.16;;;-2.40;37.09
77077;BME280;66003;52.286;104.306;2023-02-19T10:31:22;97918.47;;;-2.52;36.66
77077;BME280;66003;52.286;104.306;2023-02-19T10:33:51;97942.56;;;-2.32;36.13
77077;BME280;66003;52.286;104.306;2023-02-19T10:36:38;97932.66;;;-2.63;37.77
77077;BME280;66003;52.286;104.306;2023-02-19T10:44:44;97926.09;;;-2.59;37.68
77077;BME280;66003;52.286;104.306;2023-02-19T10:47:22;97926.28;;;-2.60;38.21
77077;BME280;66003;52.286;104.306;2023-02-19T10:49:52;97945.91;;;-2.56;38.56
77077;BME280;66003;52.286;104.306;2023-02-19T10:52:24;97931.44;;;-2.76;38.03
77077;BME280;66003;52.286;104.306;2023-02-19T10:54:56;97906.50;;;-2.97;38.06
77077;BME280;66003;52.286;104.306;2023-02-19T10:57:26;97945.25;;;-2.58;37.13
77077;BME280;66003;52.286;104.306;2023-02-19T11:02:44;97949.53;;;-2.83;38.31
77077;BME280;66003;52.286;104.306;2023-02-19T11:05:17;97942.16;;;-2.87;40.13
77077;BME280;66003;52.286;104.306;2023-02-19T11:07:55;97891.38;;;-3.11;37.52
77077;BME280;66003;52.286;104.306;2023-02-19T11:10:26;97946.56;;;-2.88;38.89
77077;BME280;66003;52.286;104.306;2023-02-19T11:12:56;97912.44;;;-3.12;37.67
77077;BME280;66003;52.286;104.306;2023-02-19T11:15:29;97948.84;;;-3.19;39.49
77077;BME280;66003;52.286;104.306;2023-02-19T11:18:02;97952.09;;;-3.43;39.70
77077;BME280;66003;52.286;104.306;2023-02-19T11:20:31;97947.94;;;-3.28;38.72
77077;BME280;66003;52.286;104.306;2023-02-19T11:23:03;97960.50;;;-3.31;39.34
77077;BME280;66003;52.286;104.306;2023-02-19T11:25:46;97950.94;;;-3.22;39.12
77077;BME280;66003;52.286;104.306;2023-02-19T11:30:49;97901.34;;;-3.76;39.05
77077;BME280;66003;52.286;104.306;2023-02-19T11:35:49;97949.78;;;-3.81;39.02
77077;BME280;66003;52.286;104.306;2023-02-19T11:38:17;97905.25;;;-4.15;38.67
77077;BME280;66003;52.286;104.306;2023-02-19T11:46:11;97964.41;;;-4.33;38.83
77077;BME280;66003;52.286;104.306;2023-02-19T11:49:44;97959.59;;;-5.02;41.52
77077;BME280;66003;52.286;104.306;2023-02-19T11:57:52;97901.06;;;-5.18;39.53
77077;BME280;66003;52.286;104.306;2023-02-19T12:00:30;97964.75;;;-5.49;42.44
77077;BME280;66003;52.286;104.306;2023-02-19T12:06:25;97948.44;;;-5.61;42.37
77077;BME280;66003;52.286;104.306;2023-02-19T12:22:36;97967.38;;;-6.57;43.63
77077;BME280;66003;52.286;104.306;2023-02-19T12:39:17;97954.44;;;-6.77;43.78
77077;BME280;66003;52.286;104.306;2023-02-19T12:47:23;97927.59;;;-7.18;42.39
77077;BME280;66003;52.286;104.306;2023-02-19T12:50:07;97917.03;;;-7.26;41.74
77077;BME280;66003;52.286;104.306;2023-02-19T12:52:41;97975.22;;;-7.08;42.39
77077;BME280;66003;52.286;104.306;2023-02-19T12:55:28;97955.13;;;-7.57;43.39
77077;BME280;66003;52.286;104.306;2023-02-19T12:57:57;97914.25;;;-7.76;43.36
77077;BME280;66003;52.286;104.306;2023-02-19T13:00:52;97967.44;;;-7.49;43.92
77077;BME280;66003;52.286;104.306;2023-02-19T13:03:38;97919.38;;;-7.85;43.49
77077;BME280;66003;52.286;104.306;2023-02-19T13:06:10;97974.22;;;-7.90;43.75
77077;BME280;66003;52.286;104.306;2023-02-19T13:08:46;97960.13;;;-7.97;43.56
77077;BME280;66003;52.286;104.306;2023-02-19T13:11:19;97929.09;;;-8.51;43.70
77077;BME280;66003;52.286;104.306;2023-02-19T13:13:57;97920.63;;;-9.20;45.18
77077;BME280;66003;52.286;104.306;2023-02-19T13:16:25;97957.25;;;-8.80;44.18
77077;BME280;66003;52.286;104.306;2023-02-19T13:19:02;97901.13;;;-9.02;43.53
77077;BME280;66003;52.286;104.306;2023-02-19T13:21:35;97963.13;;;-9.23;46.20
77077;BME280;66003;52.286;104.306;2023-02-19T13:24:32;97961.94;;;-9.07;44.94
77077;BME280;66003;52.286;104.306;2023-02-19T13:30:07;97961.69;;;-9.84;47.14
77077;BME280;66003;52.286;104.306;2023-02-19T13:38:04;97947.22;;;-9.40;45.51
77077;BME280;66003;52.286;104.306;2023-02-19T13:40:36;97948.41;;;-9.33;45.62
77077;BME280;66003;52.286;104.306;2023-02-19T13:43:23;97946.28;;;-9.17;44.04
77077;BME280;66003;52.286;104.306;2023-02-19T13:45:58;97946.66;;;-9.22;44.06
77077;BME280;66003;52.286;104.306;2023-02-19T13:48:36;97929.22;;;-9.42;44.03
77077;BME280;66003;52.286;104.306;2023-02-19T14:14:55;97887.44;;;-10.17;45.42
77077;BME280;66003;52.286;104.306;2023-02-19T14:17:43;97949.66;;;-9.96;45.62
77077;BME280;66003;52.286;104.306;2023-02-19T14:27:49;97944.88;;;-10.13;47.28
77077;BME280;66003;52.286;104.306;2023-02-19T14:30:17;97940.56;;;-10.37;48.44
77077;BME280;66003;52.286;104.306;2023-02-19T14:32:43;97910.81;;;-10.18;46.97
77077;BME280;66003;52.286;104.306;2023-02-19T14:35:20;97893.69;;;-10.08;45.70
77077;BME280;66003;52.286;104.306;2023-02-19T14:37:49;97953.16;;;-9.97;46.90
77077;BME280;66003;52.286;104.306;2023-02-19T14:40:21;97933.53;;;-10.00;45.50
77077;BME280;66003;52.286;104.306;2023-02-19T14:42:50;97933.25;;;-10.19;45.74
77077;BME280;66003;52.286;104.306;2023-02-19T14:45:18;97940.28;;;-10.21;45.83
77077;BME280;66003;52.286;104.306;2023-02-19T14:47:46;97906.97;;;-10.37;46.43
77077;BME280;66003;52.286;104.306;2023-02-19T14:50:19;97900.47;;;-10.90;47.58
77077;BME280;66003;52.286;104.306;2023-02-19T14:52:53;97953.47;;;-10.37;46.28
77077;BME280;66003;52.286;104.306;2023-02-19T14:57:53;97946.09;;;-10.90;48.59
77077;BME280;66003;52.286;104.306;2023-02-19T15:00:27;97949.75;;;-10.69;46.78
77077;BME280;66003;52.286;104.306;2023-02-19T15:02:55;97943.00;;;-10.59;45.88
77077;BME280;66003;52.286;104.306;2023-02-19T15:05:26;97944.88;;;-10.61;45.74
77077;BME280;66003;52.286;104.306;2023-02-19T15:07:56;97931.78;;;-10.71;45.77
77077;BME280;66003;52.286;104.306;2023-02-19T15:10:28;97872.50;;;-11.09;45.79
77077;BME280;66003;52.286;104.306;2023-02-19T15:12:59;97930.31;;;-10.86;46.01
77077;BME280;66003;52.286;104.306;2023-02-19T15:15:34;97923.59;;;-10.88;45.88
77077;BME280;66003;52.286;104.306;2023-02-19T15:18:02;97924.44;;;-11.01;46.13
77077;BME280;66003;52.286;104.306;2023-02-19T15:20:32;97861.13;;;-11.43;46.35
77077;BME280;66003;52.286;104.306;2023-02-19T15:22:59;97928.13;;;-10.92;46.21
77077;BME280;66003;52.286;104.306;2023-02-19T15:25:35;97910.91;;;-11.04;45.68